Phillipsport, New York
Current Conditions -  °F | °C
As of 2:06 PM on Tuesday 27 Jan 2015 (Local Time) from KMGJ Reporting Station
Light Snow Light Snow  
Wind Chill: -9°   Ceiling: 3300
Heat Index: -4°   Visibility: 8mi
Dew Point: -8°   Wind: 8mph
Humidity: 72%   Direction: 40°NE
Pressure: 29.67"   Gusts: NA
Location:  41.65°N, 74.44°W
Report Text: KMGJ 271906Z AUTO 04007KT 8SM -SN OVC033 M04/M08 A2967 RMK AO2 P0000 T10391083 TSNO
Loading
Personal Weather Stations






























Interactive Weather Map New forecast layout! Learn more

10-Day Weather Forecast

Advertisements
Track Severe Weather on mobile